Time;durP1;ratioP1;P1;durP2;ratioP2;P2;SDS_P1;SDS_P2;PMS_P1;PMS_P2;Temp;Humidity;BMP_temperature;BMP_pressure;BME280_temperature;BME280_humidity;BME280_pressure;Samples;Min_cycle;Max_cycle;Signal;HPM_P1;HPM_P2
2022/01/28 06:03:58;;;;;;;150.70;76.15;;;64.30;2201.60;;;;;;4991716;28;20050;-80
2022/01/28 06:28:04;;;;;;;148.35;75.50;;;64.40;2201.60;;;;;;4840625;29;20097;-80
2022/01/28 06:30:51;;;;;;;154.60;74.95;;;64.30;2201.60;;;;;;4854149;29;20029;-80
2022/01/28 06:34:16;;;;;;;114.72;56.58;;;64.40;2201.60;;;;;;4917904;29;20048;-80
2022/01/28 07:34:09;;;;;;;113.23;60.13;;;64.10;2201.60;;;;;;6020566;22;25051;31
2022/01/28 09:01:38;;;;;;;127.88;71.85;;;0.60;2201.60;;;;;;5016353;28;20091;-86
2022/01/28 09:17:27;;;;;;;107.72;61.65;;;0.80;2201.60;;;;;;5064047;23;20414;-89
2022/01/28 09:19:53;;;;;;;105.20;65.63;;;0.80;2201.60;;;;;;4996814;28;20036;-87
2022/01/28 09:22:19;;;;;;;89.97;58.95;;;0.70;2201.60;;;;;;4997265;28;20116;-87
2022/01/28 09:24:45;;;;;;;114.55;73.60;;;0.80;2201.60;;;;;;4997447;28;20026;-88
2022/01/28 09:27:11;;;;;;;116.53;72.03;;;0.90;2201.60;;;;;;4997365;28;20058;-86
2022/01/28 09:29:37;;;;;;;101.50;62.20;;;0.80;2201.60;;;;;;4997697;28;20048;-90
2022/01/28 09:32:04;;;;;;;96.93;58.25;;;0.90;2201.60;;;;;;4997527;28;20026;-89
2022/01/28 09:34:30;;;;;;;137.65;81.80;;;0.90;2201.60;;;;;;4997194;28;20018;-89
2022/01/28 09:36:56;;;;;;;114.57;69.07;;;0.90;2201.60;;;;;;4997505;28;20565;-88
2022/01/28 09:39:24;;;;;;;84.90;55.42;;;0.90;2201.60;;;;;;4997447;28;20113;-89
2022/01/28 09:41:51;;;;;;;74.53;47.78;;;25.60;2201.60;;;;;;4997475;28;20424;-89
2022/01/28 09:44:21;;;;;;;130.30;76.47;;;25.60;2201.60;;;;;;4997564;28;20034;-92
2022/01/28 09:46:47;;;;;;;114.75;73.28;;;25.60;2201.60;;;;;;4997305;28;20044;-89
2022/01/28 09:49:13;;;;;;;125.72;77.38;;;25.70;2201.60;;;;;;4997047;28;20029;-88
2022/01/28 09:51:39;;;;;;;112.35;71.82;;;25.70;2201.60;;;;;;4997207;28;20500;-88
2022/01/28 09:54:05;;;;;;;124.28;81.75;;;25.80;2201.60;;;;;;4997423;28;20128;-89
2022/01/28 09:56:31;;;;;;;143.65;90.00;;;25.90;2201.60;;;;;;4997274;28;20026;-92
2022/01/28 09:58:59;;;;;;;140.23;89.22;;;25.90;2201.60;;;;;;4997252;28;20029;-89
2022/01/28 10:01:26;;;;;;;163.00;111.72;;;26.00;2201.60;;;;;;4997110;28;20030;-89
2022/01/28 10:04:06;;;;;;;157.93;113.22;;;26.00;2201.60;;;;;;4997486;28;20033;-89
2022/01/28 10:07:13;;;;;;;135.05;86.07;;;26.00;2201.60;;;;;;4997451;28;20029;-89
2022/01/28 10:09:56;;;;;;;77.18;48.97;;;26.20;2201.60;;;;;;4997173;28;20173;-89
2022/01/28 10:12:41;;;;;;;71.82;48.22;;;26.00;2201.60;;;;;;4997203;28;20022;-88
2022/01/28 10:15:28;;;;;;;80.88;54.38;;;26.00;2201.60;;;;;;4996761;28;20022;-82
2022/01/28 10:18:00;;;;;;;126.97;90.35;;;26.10;2201.60;;;;;;4996488;28;20042;-84
2022/01/28 10:20:28;;;;;;;116.50;77.97;;;26.10;2201.60;;;;;;4996723;28;20034;-85
2022/01/28 10:22:59;;;;;;;92.20;58.58;;;26.20;2201.60;;;;;;4996420;28;20137;-85
2022/01/28 10:25:38;;;;;;;89.25;51.72;;;26.30;2201.60;;;;;;4996976;28;20026;-85
2022/01/28 10:28:10;;;;;;;93.07;55.95;;;26.40;2201.60;;;;;;4997400;28;20163;-90
2022/01/28 10:30:38;;;;;;;94.53;60.85;;;26.30;2201.60;;;;;;4999112;28;20034;-89
2022/01/28 10:33:19;;;;;;;93.95;62.10;;;26.30;2201.60;;;;;;5000933;28;20022;-86
2022/01/28 10:36:04;;;;;;;92.82;59.75;;;26.30;2201.60;;;;;;5000522;28;20034;-89
2022/01/28 10:38:35;;;;;;;104.07;68.85;;;26.40;2201.60;;;;;;5000499;28;20608;-84
2022/01/28 10:41:16;;;;;;;86.80;58.05;;;26.40;2201.60;;;;;;5000159;28;20033;-86
2022/01/28 10:43:46;;;;;;;108.70;69.57;;;26.50;2201.60;;;;;;5000415;28;20030;-85
2022/01/28 10:46:19;;;;;;;98.10;59.05;;;51.30;2227.20;;;;;;5000178;28;20033;-86
2022/01/28 10:48:54;;;;;;;104.45;62.13;;;51.30;2227.20;;;;;;5017981;28;20424;-85
2022/01/28 10:51:22;;;;;;;91.10;57.10;;;51.40;2227.20;;;;;;4999958;28;20030;-85
2022/01/28 10:54:06;;;;;;;100.40;66.22;;;51.60;2227.20;;;;;;5017936;28;20104;-86
2022/01/28 10:56:55;;;;;;;108.07;68.97;;;51.70;2227.20;;;;;;5000232;28;20030;-88
2022/01/28 10:59:33;;;;;;;119.82;74.05;;;51.70;2227.20;;;;;;5000037;28;20026;-86
2022/01/28 11:01:59;;;;;;;124.88;80.32;;;51.90;2227.20;;;;;;4999912;28;20117;-85
2022/01/28 11:04:26;;;;;;;87.05;55.58;;;52.00;2227.20;;;;;;5000239;28;20030;-85
2022/01/28 11:06:55;;;;;;;125.43;79.28;;;76.80;2227.20;;;;;;4999890;28;20041;-85
2022/01/28 11:09:22;;;;;;;124.32;85.00;;;76.90;2227.20;;;;;;5000243;28;20044;-85
2022/01/28 11:11:49;;;;;;;126.40;86.35;;;76.90;2227.20;;;;;;5000036;28;20033;-86
2022/01/28 11:14:17;;;;;;;132.50;85.80;;;76.90;2227.20;;;;;;4999634;28;20189;-87
2022/01/28 11:16:43;;;;;;;140.77;92.47;;;76.80;2227.20;;;;;;4999958;28;20046;-87
2022/01/28 11:19:12;;;;;;;157.45;107.50;;;76.90;2227.20;;;;;;4999889;28;20030;-86
2022/01/28 11:22:08;;;;;;;156.90;110.85;;;76.90;2227.20;;;;;;4999958;28;20481;-89
2022/01/28 11:24:56;;;;;;;175.93;121.60;;;76.90;2227.20;;;;;;5000131;28;20030;-88
2022/01/28 11:27:31;;;;;;;186.55;125.10;;;77.00;2227.20;;;;;;4999670;28;20030;-87
2022/01/28 11:30:20;;;;;;;188.18;119.13;;;77.00;2227.20;;;;;;4999660;28;20029;-89
2022/01/28 11:33:08;;;;;;;197.07;122.10;;;77.10;2227.20;;;;;;5000021;28;20033;-88
2022/01/28 11:35:40;;;;;;;181.02;122.28;;;77.20;2227.20;;;;;;4999410;28;20137;-86
2022/01/28 11:38:24;;;;;;;136.75;94.50;;;77.20;2227.20;;;;;;4999692;28;20060;-85
2022/01/28 11:41:09;;;;;;;122.63;80.47;;;77.20;2227.20;;;;;;4999320;28;20048;-87
2022/01/28 11:43:47;;;;;;;135.80;89.25;;;77.20;2227.20;;;;;;5001051;28;20553;-86
2022/01/28 11:46:25;;;;;;;150.70;101.03;;;77.30;2227.20;;;;;;5023449;28;20014;-87
2022/01/28 11:49:02;;;;;;;192.60;128.95;;;77.40;2227.20;;;;;;5033946;28;20033;-84
2022/01/28 11:51:38;;;;;;;176.55;118.30;;;77.40;2227.20;;;;;;5008330;28;20366;-85
2022/01/28 11:54:20;;;;;;;157.77;108.07;;;77.50;2227.20;;;;;;5018528;28;20076;-86
2022/01/28 11:56:57;;;;;;;182.88;122.30;;;77.70;2227.20;;;;;;5016717;28;20029;-84
2022/01/28 11:59:28;;;;;;;207.48;134.80;;;77.70;2227.20;;;;;;4999299;28;20041;-86
2022/01/28 12:01:54;;;;;;;209.35;141.13;;;77.70;2227.20;;;;;;4998857;28;20470;-85
2022/01/28 12:04:30;;;;;;;220.85;148.95;;;77.70;2227.20;;;;;;4999084;28;20124;-85
2022/01/28 12:07:14;;;;;;;184.38;123.13;;;102.40;2227.20;;;;;;4999002;28;20033;-84
2022/01/28 12:09:46;;;;;;;182.43;114.63;;;102.40;2227.20;;;;;;4998626;28;20029;-83
2022/01/28 12:12:18;;;;;;;188.15;123.45;;;102.50;2227.20;;;;;;4998804;28;20025;-84
2022/01/28 12:14:55;;;;;;;204.10;134.80;;;102.60;2227.20;;;;;;5016722;28;20022;-87
2022/01/28 12:17:36;;;;;;;239.13;158.57;;;102.70;2227.20;;;;;;4998678;28;20045;-85
2022/01/28 12:20:24;;;;;;;152.10;99.85;;;102.80;2227.20;;;;;;4998636;28;20058;-81
2022/01/28 12:23:08;;;;;;;122.10;76.65;;;103.00;2227.20;;;;;;4998355;28;20034;-81
2022/01/28 12:25:43;;;;;;;141.40;84.30;;;103.20;2227.20;;;;;;4998013;28;20029;-82
2022/01/28 12:28:23;;;;;;;105.47;63.72;;;103.20;2227.20;;;;;;4998738;28;20033;-80
2022/01/28 12:30:56;;;;;;;72.80;43.15;;;103.30;2227.20;;;;;;4998058;28;20034;-81
2022/01/28 12:33:25;;;;;;;67.18;39.60;;;128.10;2252.80;;;;;;4997859;28;20101;-83
2022/01/28 12:35:55;;;;;;;70.03;40.50;;;128.20;2252.80;;;;;;4998090;28;20026;-85
2022/01/28 12:38:24;;;;;;;66.63;44.45;;;128.20;2252.80;;;;;;4998226;28;20485;-80
2022/01/28 12:40:53;;;;;;;199.73;131.63;;;128.30;2252.80;;;;;;4997678;28;20022;-80
2022/01/28 12:43:26;;;;;;;46.22;31.80;;;128.40;2252.80;;;;;;5004533;28;20119;-83
2022/01/28 12:46:05;;;;;;;69.00;44.00;;;128.40;2252.80;;;;;;5016680;28;20037;-82
2022/01/28 12:48:34;;;;;;;92.68;56.70;;;128.50;2252.80;;;;;;5016519;28;20473;-82
2022/01/28 12:51:02;;;;;;;80.57;52.58;;;128.60;2252.80;;;;;;5006681;28;20030;-80
2022/01/28 12:53:42;;;;;;;75.85;43.42;;;128.50;2252.80;;;;;;4996851;28;20037;-80
2022/01/28 12:56:09;;;;;;;65.30;42.38;;;128.60;2252.80;;;;;;4996655;28;20493;-82
2022/01/28 12:58:36;;;;;;;67.65;41.90;;;128.70;2252.80;;;;;;5000130;28;20021;-81
2022/01/28 13:01:13;;;;;;;52.55;32.28;;;128.70;2252.80;;;;;;5016679;28;20082;-81
2022/01/28 13:03:50;;;;;;;43.80;26.15;;;128.80;2252.80;;;;;;5013136;28;20041;-83
2022/01/28 13:06:39;;;;;;;36.45;22.05;;;128.80;2252.80;;;;;;5016752;28;20029;-81
2022/01/28 13:09:14;;;;;;;45.60;26.63;;;128.80;2252.80;;;;;;5027358;28;20029;-84
2022/01/28 13:11:54;;;;;;;48.97;28.50;;;128.90;2252.80;;;;;;4995975;28;20121;-79
2022/01/28 13:14:22;;;;;;;41.90;23.35;;;128.90;2252.80;;;;;;4996817;28;20038;-81
2022/01/28 13:16:49;;;;;;;107.55;48.72;;;128.90;2252.80;;;;;;4996218;28;20076;-83
2022/01/28 13:19:16;;;;;;;45.25;27.08;;;128.90;2252.80;;;;;;4996226;28;20094;-80
2022/01/28 13:21:44;;;;;;;28.23;17.20;;;128.70;2252.80;;;;;;4996543;28;20033;-81
2022/01/28 13:24:10;;;;;;;52.67;31.40;;;153.60;2252.80;;;;;;4996829;28;20030;-80
2022/01/28 13:26:52;;;;;;;36.00;22.75;;;153.70;2252.80;;;;;;4997198;28;20038;-81
2022/01/28 13:29:18;;;;;;;40.65;22.45;;;153.60;2252.80;;;;;;4996146;28;20049;-80
2022/01/28 13:31:54;;;;;;;39.80;22.92;;;153.60;2252.80;;;;;;4996005;28;20030;-81
2022/01/28 13:34:19;;;;;;;37.35;20.30;;;153.60;2252.80;;;;;;4995809;28;20053;-81
2022/01/28 13:36:51;;;;;;;39.30;24.02;;;153.70;2252.80;;;;;;4996921;28;20061;-85
2022/01/28 13:39:22;;;;;;;48.05;27.92;;;153.70;2252.80;;;;;;4997200;28;20037;-85
2022/01/28 13:42:04;;;;;;;30.90;19.38;;;153.70;2252.80;;;;;;4996744;28;20037;-87
2022/01/28 13:44:33;;;;;;;28.63;20.25;;;153.70;2252.80;;;;;;4996004;28;20378;-86
2022/01/28 13:47:02;;;;;;;30.35;19.13;;;153.70;2252.80;;;;;;4995725;28;20034;-86
2022/01/28 13:49:29;;;;;;;30.40;20.73;;;153.80;2252.80;;;;;;4997857;28;20030;-85
2022/01/28 13:52:28;;;;;;;27.33;17.05;;;153.80;2252.80;;;;;;4997247;28;20030;-85
2022/01/28 13:54:54;;;;;;;37.40;21.75;;;153.80;2252.80;;;;;;4997304;28;20026;-87
2022/01/28 13:57:28;;;;;;;35.75;22.00;;;153.80;2252.80;;;;;;4997769;28;20536;-86
2022/01/28 14:00:04;;;;;;;35.08;20.50;;;153.90;2252.80;;;;;;4997541;28;20033;-85
2022/01/28 14:02:39;;;;;;;44.88;27.25;;;128.90;2252.80;;;;;;4996690;28;20466;-85
2022/01/28 14:05:05;;;;;;;37.55;22.52;;;128.10;2252.80;;;;;;4996000;28;20064;-84
2022/01/28 14:07:31;;;;;;;33.63;21.50;;;153.90;2252.80;;;;;;4996902;28;20065;-86
2022/01/28 14:10:00;;;;;;;30.77;19.88;;;153.90;2252.80;;;;;;4995719;28;20061;-85
2022/01/28 14:15:10;;;;;;;30.05;19.02;;;153.90;2252.80;;;;;;5013901;28;20077;-85
2022/01/28 14:17:37;;;;;;;38.10;21.40;;;153.90;2252.80;;;;;;4996116;28;20052;-86
2022/01/28 14:20:07;;;;;;;27.40;14.95;;;153.90;2252.80;;;;;;4996957;28;20113;-87
2022/01/28 14:22:34;;;;;;;37.10;24.73;;;153.80;2252.80;;;;;;4996595;28;20044;-84
2022/01/28 14:24:59;;;;;;;29.30;18.52;;;153.80;2252.80;;;;;;4996069;28;20030;-87
2022/01/28 14:30:01;;;;;;;34.05;22.98;;;153.80;2252.80;;;;;;5013533;28;20029;-78
2022/01/28 14:32:27;;;;;;;31.33;22.25;;;153.80;2252.80;;;;;;5013056;28;20032;-82
2022/01/28 14:34:55;;;;;;;35.95;21.48;;;153.80;2252.80;;;;;;4995855;28;20112;-82
2022/01/28 14:37:22;;;;;;;73.10;41.88;;;153.80;2252.80;;;;;;5013889;28;20029;-87
2022/01/28 14:39:48;;;;;;;34.60;22.92;;;153.80;2252.80;;;;;;4996241;28;20501;-86
2022/01/28 14:42:15;;;;;;;34.17;20.13;;;153.70;2252.80;;;;;;4996774;28;20026;-88
2022/01/28 14:44:47;;;;;;;26.50;18.63;;;153.70;2252.80;;;;;;4996679;28;20033;-87
2022/01/28 14:47:16;;;;;;;32.97;21.50;;;153.70;2252.80;;;;;;4996732;28;20026;-87
2022/01/28 14:49:43;;;;;;;29.50;20.52;;;153.60;2252.80;;;;;;4997241;28;20033;-90
2022/01/28 14:52:14;;;;;;;30.98;20.27;;;153.70;2252.80;;;;;;4996442;28;20046;-88
2022/01/28 14:54:40;;;;;;;31.98;24.00;;;153.60;2252.80;;;;;;4996510;28;20025;-91
2022/01/28 14:57:13;;;;;;;35.15;23.83;;;128.90;2252.80;;;;;;4997020;28;20034;-89
2022/01/28 14:59:41;;;;;;;26.13;17.65;;;153.60;2252.80;;;;;;4995976;28;20117;-84
2022/01/28 15:02:11;;;;;;;25.60;16.27;;;128.90;2252.80;;;;;;4995499;28;20465;-87
2022/01/28 15:04:38;;;;;;;27.90;18.75;;;128.90;2252.80;;;;;;4995867;28;20037;-86
2022/01/28 15:07:05;;;;;;;33.13;22.90;;;128.90;2252.80;;;;;;4995507;28;20088;-88
2022/01/28 15:09:39;;;;;;;30.17;18.13;;;128.90;2252.80;;;;;;4996018;28;20390;-83
2022/01/28 15:12:07;;;;;;;28.88;17.83;;;128.90;2252.80;;;;;;4996779;28;20473;-89
2022/01/28 15:14:46;;;;;;;32.55;24.05;;;128.80;2252.80;;;;;;4996557;28;20018;-88
2022/01/28 15:17:16;;;;;;;27.38;17.95;;;128.80;2252.80;;;;;;4993361;28;20474;-87
2022/01/28 15:19:42;;;;;;;33.67;23.52;;;128.80;2252.80;;;;;;4996371;28;20035;-86
2022/01/28 15:22:09;;;;;;;30.05;22.40;;;128.80;2252.80;;;;;;4996058;28;20045;-88
2022/01/28 15:24:36;;;;;;;31.65;21.35;;;128.80;2252.80;;;;;;4995883;28;20057;-85
2022/01/28 15:27:02;;;;;;;32.75;22.42;;;128.80;2252.80;;;;;;4995959;28;20072;-82
2022/01/28 15:35:29;;;;;;;26.55;18.15;;;128.70;2252.80;;;;;;4986495;28;20128;-85
2022/01/28 15:37:48;;;;;;;28.40;17.80;;;128.70;2252.80;;;;;;4996073;28;20027;-86
2022/01/28 15:40:16;;;;;;;27.27;17.10;;;128.70;2252.80;;;;;;4993652;28;20521;-83
2022/01/28 15:42:42;;;;;;;26.45;18.10;;;128.70;2252.80;;;;;;4994642;28;20084;-89
2022/01/28 15:45:08;;;;;;;31.27;18.88;;;128.70;2252.80;;;;;;4995472;28;20030;-84
2022/01/28 15:47:34;;;;;;;27.73;19.13;;;128.60;2252.80;;;;;;4995143;28;20065;-83
2022/01/28 15:50:00;;;;;;;36.45;22.65;;;128.80;2252.80;;;;;;4995118;28;20030;-86
2022/01/28 15:52:27;;;;;;;34.85;21.02;;;128.50;2252.80;;;;;;4994817;28;20402;-86
2022/01/28 15:54:53;;;;;;;156.90;82.22;;;128.50;2252.80;;;;;;4995685;28;20026;-85
2022/01/28 15:57:19;;;;;;;39.97;24.38;;;128.50;2252.80;;;;;;4996748;28;20034;-84
2022/01/28 15:59:45;;;;;;;25.77;18.23;;;128.50;2252.80;;;;;;4995725;28;20157;-85
2022/01/28 16:02:10;;;;;;;41.42;27.92;;;128.50;2252.80;;;;;;4995531;28;20070;-84
2022/01/28 16:04:40;;;;;;;63.53;40.17;;;128.50;2252.80;;;;;;4994910;28;20505;-85
2022/01/28 16:07:06;;;;;;;53.67;38.22;;;128.40;2252.80;;;;;;4994972;28;20026;-83
2022/01/28 16:09:32;;;;;;;62.58;46.90;;;128.40;2252.80;;;;;;4996640;28;20023;-83
2022/01/28 16:12:01;;;;;;;54.30;39.22;;;128.40;2252.80;;;;;;4995109;28;20035;-86
2022/01/28 16:14:29;;;;;;;115.57;71.85;;;128.40;2252.80;;;;;;4994860;28;20080;-85
2022/01/28 16:19:34;;;;;;;205.80;146.25;;;103.30;2227.20;;;;;;4996141;28;20126;-84
2022/01/28 16:22:01;;;;;;;205.88;142.32;;;103.20;2227.20;;;;;;4994652;28;20031;-85
2022/01/28 16:24:27;;;;;;;242.65;159.25;;;103.10;2227.20;;;;;;4994844;28;20153;-86
2022/01/28 16:26:55;;;;;;;204.60;136.00;;;102.90;2227.20;;;;;;4994789;28;20065;-84
2022/01/28 16:29:22;;;;;;;186.15;124.05;;;102.90;2227.20;;;;;;4994286;28;20030;-83
2022/01/28 16:31:48;;;;;;;182.77;125.28;;;102.90;2227.20;;;;;;4994363;28;20031;-86
2022/01/28 16:34:17;;;;;;;175.07;115.43;;;102.80;2227.20;;;;;;4995248;28;20030;-85
2022/01/28 16:36:47;;;;;;;177.75;111.80;;;102.90;2227.20;;;;;;4995384;28;20479;-83
2022/01/28 16:39:14;;;;;;;179.25;114.85;;;102.90;2227.20;;;;;;4996133;28;20534;-83
2022/01/28 16:41:43;;;;;;;194.82;128.35;;;102.70;2227.20;;;;;;4994548;28;20042;-85
2022/01/28 16:44:12;;;;;;;216.00;132.82;;;102.70;2227.20;;;;;;4994560;28;20375;-84
2022/01/28 16:46:40;;;;;;;150.50;95.65;;;102.70;2227.20;;;;;;4994174;28;20022;-87
2022/01/28 16:49:08;;;;;;;130.93;87.60;;;102.50;2227.20;;;;;;4992325;28;20030;-86
2022/01/28 16:51:34;;;;;;;154.00;90.95;;;102.40;2227.20;;;;;;4994519;28;20026;-86
2022/01/28 16:54:00;;;;;;;174.38;107.30;;;77.70;2227.20;;;;;;4994595;28;20076;-87
2022/01/28 16:56:26;;;;;;;164.70;102.88;;;102.60;2227.20;;;;;;4996992;28;20026;-84
2022/01/28 16:58:53;;;;;;;208.88;137.60;;;77.60;2227.20;;;;;;5008152;28;20050;-85
2022/01/28 17:01:19;;;;;;;202.18;126.97;;;77.60;2227.20;;;;;;5006663;28;20137;-84
2022/01/28 17:03:49;;;;;;;237.93;153.80;;;77.60;2227.20;;;;;;5012226;28;20026;-86
2022/01/28 17:06:16;;;;;;;232.73;155.57;;;77.70;2227.20;;;;;;5011770;28;20049;-84
2022/01/28 17:08:43;;;;;;;251.85;169.48;;;77.50;2227.20;;;;;;5010819;28;20019;-81
2022/01/28 17:11:25;;;;;;;313.80;207.88;;;77.60;2227.20;;;;;;5007181;28;20030;-82
2022/01/28 17:13:51;;;;;;;301.52;193.57;;;77.50;2227.20;;;;;;5002161;28;20065;-82
2022/01/28 17:16:18;;;;;;;302.02;197.70;;;77.70;2227.20;;;;;;5007097;28;20050;-80
2022/01/28 17:18:44;;;;;;;316.77;198.95;;;77.40;2227.20;;;;;;4992780;28;20518;-85
2022/01/28 17:21:10;;;;;;;302.23;198.55;;;77.40;2227.20;;;;;;4993459;28;20026;-85
2022/01/28 17:23:40;;;;;;;273.05;177.07;;;77.40;2227.20;;;;;;4993494;28;20073;-84
2022/01/28 17:26:06;;;;;;;321.83;207.50;;;77.50;2227.20;;;;;;4992197;28;20019;-84
2022/01/28 17:28:32;;;;;;;396.70;256.95;;;77.50;2227.20;;;;;;4994013;28;20114;-87
2022/01/28 17:30:58;;;;;;;325.00;212.73;;;77.40;2227.20;;;;;;4994533;28;20035;-85
2022/01/28 17:33:23;;;;;;;317.08;204.85;;;77.50;2227.20;;;;;;4994200;28;20402;-85
2022/01/28 17:35:50;;;;;;;329.13;210.13;;;77.60;2227.20;;;;;;4995052;28;20030;-84
2022/01/28 17:38:22;;;;;;;458.20;295.98;;;77.60;2227.20;;;;;;4993382;28;20532;-83
2022/01/28 17:40:48;;;;;;;555.92;345.20;;;77.50;2227.20;;;;;;4990292;28;20072;-84
2022/01/28 17:43:15;;;;;;;584.97;368.58;;;77.50;2227.20;;;;;;4993196;28;20030;-85
2022/01/28 17:45:41;;;;;;;531.28;332.10;;;77.50;2227.20;;;;;;4992728;28;20046;-83
2022/01/28 17:48:07;;;;;;;516.70;299.70;;;77.50;2227.20;;;;;;4992865;28;20474;-84
2022/01/28 17:50:33;;;;;;;447.17;253.40;;;77.60;2227.20;;;;;;4992813;28;20100;-84
2022/01/28 17:53:01;;;;;;;443.20;262.60;;;77.60;2227.20;;;;;;4992436;28;20030;-83
2022/01/28 17:55:31;;;;;;;430.30;260.20;;;77.40;2227.20;;;;;;4992665;28;20054;-85
2022/01/28 17:57:57;;;;;;;403.00;241.13;;;77.50;2227.20;;;;;;4992492;28;20027;-80
2022/01/28 18:00:23;;;;;;;399.65;246.10;;;77.40;2227.20;;;;;;4992471;28;20181;-86
2022/01/28 18:02:49;;;;;;;420.95;256.08;;;77.50;2227.20;;;;;;4993482;28;20042;-85
2022/01/28 18:05:15;;;;;;;416.65;262.55;;;77.40;2227.20;;;;;;4992382;28;20037;-84
2022/01/28 18:07:41;;;;;;;409.92;246.98;;;77.20;2227.20;;;;;;4992579;28;20025;-85
2022/01/28 18:10:09;;;;;;;407.80;251.30;;;77.40;2227.20;;;;;;4992240;28;20389;-82
2022/01/28 18:12:36;;;;;;;398.85;242.07;;;77.40;2227.20;;;;;;4992630;28;20061;-83
2022/01/28 18:15:02;;;;;;;381.40;228.18;;;77.50;2227.20;;;;;;4992567;28;20386;-87
2022/01/28 18:17:28;;;;;;;422.13;253.32;;;77.40;2227.20;;;;;;4992462;28;20159;-88
2022/01/28 18:19:54;;;;;;;349.38;213.00;;;77.40;2227.20;;;;;;4992521;28;20117;-84
2022/01/28 18:22:20;;;;;;;310.55;192.07;;;77.60;2227.20;;;;;;4992208;28;20027;-86
2022/01/28 18:24:45;;;;;;;287.67;176.85;;;77.70;2227.20;;;;;;4992332;28;20096;-86
2022/01/28 18:27:13;;;;;;;275.92;167.38;;;77.60;2227.20;;;;;;4992620;28;20019;-86
2022/01/28 18:29:40;;;;;;;224.45;137.93;;;77.70;2227.20;;;;;;4992616;28;20031;-85
2022/01/28 18:32:06;;;;;;;149.38;95.97;;;102.40;2227.20;;;;;;4992711;28;20053;-83
2022/01/28 18:34:32;;;;;;;135.43;81.65;;;102.40;2227.20;;;;;;4992681;28;20023;-83
2022/01/28 18:36:58;;;;;;;135.63;64.72;;;103.00;2227.20;;;;;;4993244;28;20023;-81
2022/01/28 18:39:24;;;;;;;79.30;48.55;;;102.50;2227.20;;;;;;4992341;28;20076;-84
2022/01/28 18:41:52;;;;;;;86.25;51.72;;;102.70;2227.20;;;;;;4992552;28;20034;-84
2022/01/28 18:44:19;;;;;;;71.90;43.13;;;102.80;2227.20;;;;;;4992055;28;20046;-85
2022/01/28 18:47:04;;;;;;;69.45;42.42;;;102.80;2227.20;;;;;;4992267;28;20410;-81
2022/01/28 18:49:31;;;;;;;57.00;33.75;;;102.90;2227.20;;;;;;4973898;28;20030;-86
2022/01/28 18:52:03;;;;;;;42.42;24.85;;;103.00;2227.20;;;;;;5000219;28;20040;-84
2022/01/28 18:54:28;;;;;;;37.30;21.55;;;103.00;2227.20;;;;;;4996344;28;20537;-82
2022/01/28 18:56:54;;;;;;;35.00;21.30;;;103.00;2227.20;;;;;;4996008;28;20117;-84
2022/01/28 18:59:20;;;;;;;46.92;29.63;;;103.00;2227.20;;;;;;4995369;28;20521;-84
2022/01/28 19:01:47;;;;;;;64.05;39.05;;;103.00;2227.20;;;;;;4997456;28;20035;-84
2022/01/28 19:04:13;;;;;;;58.38;36.83;;;103.00;2227.20;;;;;;4995748;28;20034;-84
2022/01/28 19:06:38;;;;;;;47.25;29.88;;;102.90;2227.20;;;;;;4995324;28;20059;-84
2022/01/28 19:09:06;;;;;;;40.63;25.55;;;103.30;2227.20;;;;;;4997337;28;20026;-81
2022/01/28 19:11:37;;;;;;;45.00;25.15;;;102.90;2227.20;;;;;;4995638;28;20054;-82
2022/01/28 19:14:05;;;;;;;36.75;23.00;;;102.90;2227.20;;;;;;4995817;28;20125;-86
2022/01/28 19:16:32;;;;;;;30.65;19.33;;;102.90;2227.20;;;;;;4995662;28;20053;-85
2022/01/28 19:18:59;;;;;;;29.17;17.60;;;103.00;2227.20;;;;;;4995578;28;20033;-84
2022/01/28 19:21:26;;;;;;;34.08;21.45;;;102.90;2227.20;;;;;;4995371;28;20034;-85
2022/01/28 19:23:55;;;;;;;39.17;24.00;;;102.90;2227.20;;;;;;4997523;28;20022;-88
2022/01/28 19:26:22;;;;;;;32.83;20.55;;;103.00;2227.20;;;;;;4993150;28;20033;-80
2022/01/28 19:28:48;;;;;;;28.85;19.25;;;103.00;2227.20;;;;;;4995341;28;20023;-82
2022/01/28 19:31:14;;;;;;;28.73;19.27;;;103.00;2227.20;;;;;;4995482;28;20034;-79
2022/01/28 19:33:40;;;;;;;33.25;21.00;;;103.00;2227.20;;;;;;4994979;28;20498;-79
2022/01/28 19:36:06;;;;;;;30.98;19.83;;;103.00;2227.20;;;;;;4994228;28;20023;-83
2022/01/28 19:38:34;;;;;;;31.67;19.33;;;103.00;2227.20;;;;;;4995121;28;20100;-84
2022/01/28 19:41:01;;;;;;;28.10;17.50;;;103.00;2227.20;;;;;;4995788;28;20029;-82
2022/01/28 19:43:28;;;;;;;27.85;15.88;;;103.00;2227.20;;;;;;4995898;28;20038;-84
2022/01/28 19:46:01;;;;;;;22.60;14.65;;;103.00;2227.20;;;;;;4996127;28;20065;-86
2022/01/28 19:48:28;;;;;;;20.63;13.20;;;103.00;2227.20;;;;;;4985630;28;20549;-86
2022/01/28 19:50:54;;;;;;;23.95;14.27;;;103.00;2227.20;;;;;;4994995;28;20113;-85
2022/01/28 19:53:20;;;;;;;25.95;17.13;;;103.00;2227.20;;;;;;4995112;28;20113;-84
2022/01/28 19:55:46;;;;;;;34.22;21.65;;;103.00;2227.20;;;;;;4995823;28;20058;-84
2022/01/28 19:58:12;;;;;;;42.38;25.88;;;103.00;2227.20;;;;;;4995969;28;20050;-86
2022/01/28 20:00:38;;;;;;;32.47;18.70;;;103.00;2227.20;;;;;;4994684;28;20076;-82
2022/01/28 20:03:03;;;;;;;34.10;19.90;;;103.00;2227.20;;;;;;4994152;28;20108;-83
2022/01/28 20:05:29;;;;;;;29.00;16.85;;;103.00;2227.20;;;;;;4995128;28;20033;-89
2022/01/28 20:07:55;;;;;;;26.70;17.23;;;103.10;2227.20;;;;;;4995032;28;20031;-84
2022/01/28 20:10:25;;;;;;;30.23;19.98;;;103.10;2227.20;;;;;;4989705;28;20022;-83
2022/01/28 20:12:54;;;;;;;27.63;19.77;;;103.10;2227.20;;;;;;4994794;28;20054;-84
2022/01/28 20:15:20;;;;;;;24.55;16.92;;;103.10;2227.20;;;;;;4994326;28;20029;-84
2022/01/28 20:17:46;;;;;;;35.85;20.95;;;103.10;2227.20;;;;;;4994589;28;20491;-86
2022/01/28 20:20:12;;;;;;;30.38;22.50;;;103.10;2227.20;;;;;;4994705;28;20033;-85
2022/01/28 20:22:42;;;;;;;27.60;18.65;;;103.10;2227.20;;;;;;4994172;28;20433;-83
2022/01/28 20:25:10;;;;;;;27.02;16.55;;;103.10;2227.20;;;;;;4995868;28;20023;-87
2022/01/28 20:27:36;;;;;;;21.90;15.85;;;103.10;2227.20;;;;;;4995689;28;20037;-85
2022/01/28 20:30:03;;;;;;;29.00;17.65;;;103.10;2227.20;;;;;;4994337;28;20018;-85
2022/01/28 20:32:29;;;;;;;27.48;17.25;;;103.10;2227.20;;;;;;4994359;28;20475;-86
2022/01/28 20:34:55;;;;;;;25.30;16.60;;;103.20;2227.20;;;;;;4994351;28;20053;-84
2022/01/28 20:37:21;;;;;;;33.75;20.80;;;103.10;2227.20;;;;;;4995441;28;20517;-85
2022/01/28 20:39:47;;;;;;;25.20;16.00;;;103.10;2227.20;;;;;;4993971;28;20023;-84
2022/01/28 20:42:12;;;;;;;24.55;13.95;;;103.00;2227.20;;;;;;4993843;28;20030;-84
2022/01/28 20:44:38;;;;;;;37.40;22.65;;;103.10;2227.20;;;;;;4993771;28;20049;-81
2022/01/28 20:47:04;;;;;;;36.22;21.63;;;103.00;2227.20;;;;;;4994053;28;20368;-83
2022/01/28 20:49:31;;;;;;;49.55;27.30;;;103.10;2227.20;;;;;;4994023;28;20049;-83
2022/01/28 20:51:59;;;;;;;36.38;21.15;;;103.00;2227.20;;;;;;4994027;28;20524;-86
2022/01/28 20:54:28;;;;;;;38.88;24.73;;;103.00;2227.20;;;;;;4994192;28;20031;-88
2022/01/28 20:56:58;;;;;;;54.55;34.90;;;103.10;2227.20;;;;;;4993799;28;20026;-85
2022/01/28 20:59:25;;;;;;;49.53;30.92;;;103.10;2227.20;;;;;;4989055;28;20026;-83
2022/01/28 21:01:51;;;;;;;55.92;35.70;;;102.80;2227.20;;;;;;4994231;28;20193;-85
2022/01/28 21:04:16;;;;;;;54.30;35.53;;;103.10;2227.20;;;;;;4995402;28;20034;-81
2022/01/28 21:06:44;;;;;;;47.70;29.40;;;103.10;2227.20;;;;;;4994604;28;20027;-83
2022/01/28 21:09:10;;;;;;;53.50;33.50;;;103.10;2227.20;;;;;;4994379;28;20085;-85
2022/01/28 21:11:37;;;;;;;32.88;20.58;;;103.10;2227.20;;;;;;4994371;28;20478;-83
2022/01/28 21:14:04;;;;;;;39.67;23.33;;;103.10;2227.20;;;;;;4994493;28;20455;-85
2022/01/28 21:16:30;;;;;;;46.83;26.02;;;103.20;2227.20;;;;;;5002199;28;20045;-83
2022/01/28 21:18:56;;;;;;;40.38;26.98;;;103.20;2227.20;;;;;;4997350;28;20040;-83
2022/01/28 21:21:22;;;;;;;38.78;25.98;;;103.30;2227.20;;;;;;5015105;28;20026;-84
2022/01/28 21:23:48;;;;;;;26.65;17.35;;;103.30;2227.20;;;;;;4997548;28;20116;-83